sensor_id;sensor_type;location;lat;lon;timestamp;P1;durP1;ratioP1;P2;durP2;ratioP2
5491;SDS011;2768;53.540;10.224;2023-05-10T00:03:19;4.67;;;4.17;;
5491;SDS011;2768;53.540;10.224;2023-05-10T00:09:12;6.83;;;4.27;;
5491;SDS011;2768;53.540;10.224;2023-05-10T00:15:08;4.87;;;3.80;;
5491;SDS011;2768;53.540;10.224;2023-05-10T00:21:01;5.50;;;3.60;;
5491;SDS011;2768;53.540;10.224;2023-05-10T00:26:54;4.47;;;3.53;;
5491;SDS011;2768;53.540;10.224;2023-05-10T00:32:49;5.40;;;3.73;;
5491;SDS011;2768;53.540;10.224;2023-05-10T00:38:43;6.20;;;3.63;;
5491;SDS011;2768;53.540;10.224;2023-05-10T00:44:37;4.40;;;3.40;;
5491;SDS011;2768;53.540;10.224;2023-05-10T00:50:32;3.93;;;3.53;;
5491;SDS011;2768;53.540;10.224;2023-05-10T00:56:26;3.93;;;3.47;;
5491;SDS011;2768;53.540;10.224;2023-05-10T01:02:21;3.97;;;3.60;;
5491;SDS011;2768;53.540;10.224;2023-05-10T01:08:15;4.07;;;3.47;;
5491;SDS011;2768;53.540;10.224;2023-05-10T01:14:09;4.37;;;3.20;;
5491;SDS011;2768;53.540;10.224;2023-05-10T01:20:05;4.23;;;3.40;;
5491;SDS011;2768;53.540;10.224;2023-05-10T01:26:14;4.10;;;3.23;;
5491;SDS011;2768;53.540;10.224;2023-05-10T01:32:32;3.80;;;3.50;;
5491;SDS011;2768;53.540;10.224;2023-05-10T01:38:33;7.10;;;3.40;;
5491;SDS011;2768;53.540;10.224;2023-05-10T01:44:42;8.37;;;3.77;;
5491;SDS011;2768;53.540;10.224;2023-05-10T01:50:44;4.00;;;3.60;;
5491;SDS011;2768;53.540;10.224;2023-05-10T01:56:38;4.63;;;3.47;;
5491;SDS011;2768;53.540;10.224;2023-05-10T02:02:33;4.37;;;3.47;;
5491;SDS011;2768;53.540;10.224;2023-05-10T02:08:30;3.77;;;3.47;;
5491;SDS011;2768;53.540;10.224;2023-05-10T02:14:27;4.00;;;3.70;;
5491;SDS011;2768;53.540;10.224;2023-05-10T02:20:23;4.10;;;3.80;;
5491;SDS011;2768;53.540;10.224;2023-05-10T02:26:18;6.73;;;3.80;;
5491;SDS011;2768;53.540;10.224;2023-05-10T02:32:14;5.53;;;3.57;;
5491;SDS011;2768;53.540;10.224;2023-05-10T02:38:09;3.97;;;3.57;;
5491;SDS011;2768;53.540;10.224;2023-05-10T02:44:05;4.30;;;3.60;;
5491;SDS011;2768;53.540;10.224;2023-05-10T02:50:00;4.63;;;3.50;;
5491;SDS011;2768;53.540;10.224;2023-05-10T02:55:56;7.10;;;3.57;;
5491;SDS011;2768;53.540;10.224;2023-05-10T03:01:56;4.30;;;3.67;;
5491;SDS011;2768;53.540;10.224;2023-05-10T03:07:49;7.33;;;3.80;;
5491;SDS011;2768;53.540;10.224;2023-05-10T03:13:44;3.23;;;2.93;;
5491;SDS011;2768;53.540;10.224;2023-05-10T03:19:49;8.17;;;3.83;;
5491;SDS011;2768;53.540;10.224;2023-05-10T03:25:46;4.87;;;4.03;;
5491;SDS011;2768;53.540;10.224;2023-05-10T03:31:41;4.23;;;3.60;;
5491;SDS011;2768;53.540;10.224;2023-05-10T03:37:36;4.50;;;3.77;;
5491;SDS011;2768;53.540;10.224;2023-05-10T03:43:30;5.73;;;3.80;;
5491;SDS011;2768;53.540;10.224;2023-05-10T03:49:23;4.27;;;3.87;;
5491;SDS011;2768;53.540;10.224;2023-05-10T03:55:18;3.90;;;3.60;;
5491;SDS011;2768;53.540;10.224;2023-05-10T04:01:11;6.83;;;4.10;;
5491;SDS011;2768;53.540;10.224;2023-05-10T04:07:05;5.23;;;4.37;;
5491;SDS011;2768;53.540;10.224;2023-05-10T04:12:59;7.37;;;3.70;;
5491;SDS011;2768;53.540;10.224;2023-05-10T04:18:52;4.43;;;4.03;;
5491;SDS011;2768;53.540;10.224;2023-05-10T04:24:45;4.43;;;3.83;;
5491;SDS011;2768;53.540;10.224;2023-05-10T04:30:40;4.13;;;3.73;;
5491;SDS011;2768;53.540;10.224;2023-05-10T04:36:33;4.70;;;4.17;;
5491;SDS011;2768;53.540;10.224;2023-05-10T04:42:28;7.17;;;4.00;;
5491;SDS011;2768;53.540;10.224;2023-05-10T04:48:22;7.57;;;4.27;;
5491;SDS011;2768;53.540;10.224;2023-05-10T04:54:15;5.50;;;3.90;;
5491;SDS011;2768;53.540;10.224;2023-05-10T05:00:09;4.30;;;3.80;;
5491;SDS011;2768;53.540;10.224;2023-05-10T05:06:04;4.83;;;3.93;;
5491;SDS011;2768;53.540;10.224;2023-05-10T05:11:58;4.23;;;3.83;;
5491;SDS011;2768;53.540;10.224;2023-05-10T05:17:51;4.00;;;3.70;;
5491;SDS011;2768;53.540;10.224;2023-05-10T05:23:45;4.63;;;4.13;;
5491;SDS011;2768;53.540;10.224;2023-05-10T05:29:39;5.03;;;4.40;;
5491;SDS011;2768;53.540;10.224;2023-05-10T05:35:32;3.93;;;3.60;;
5491;SDS011;2768;53.540;10.224;2023-05-10T05:41:27;4.63;;;4.13;;
5491;SDS011;2768;53.540;10.224;2023-05-10T05:47:20;4.63;;;4.00;;
5491;SDS011;2768;53.540;10.224;2023-05-10T05:53:14;4.43;;;4.10;;
5491;SDS011;2768;53.540;10.224;2023-05-10T05:59:08;5.00;;;4.50;;
5491;SDS011;2768;53.540;10.224;2023-05-10T06:05:02;4.43;;;4.03;;
5491;SDS011;2768;53.540;10.224;2023-05-10T06:10:55;4.40;;;4.00;;
5491;SDS011;2768;53.540;10.224;2023-05-10T06:16:50;4.03;;;3.73;;
5491;SDS011;2768;53.540;10.224;2023-05-10T06:22:43;4.50;;;4.10;;
5491;SDS011;2768;53.540;10.224;2023-05-10T06:28:37;9.20;;;4.17;;
5491;SDS011;2768;53.540;10.224;2023-05-10T06:34:31;5.90;;;4.10;;
5491;SDS011;2768;53.540;10.224;2023-05-10T06:40:25;7.43;;;4.27;;
5491;SDS011;2768;53.540;10.224;2023-05-10T06:46:18;6.23;;;4.50;;
5491;SDS011;2768;53.540;10.224;2023-05-10T06:52:13;5.03;;;3.93;;
5491;SDS011;2768;53.540;10.224;2023-05-10T06:58:06;4.53;;;4.13;;
5491;SDS011;2768;53.540;10.224;2023-05-10T07:03:59;4.33;;;3.93;;
5491;SDS011;2768;53.540;10.224;2023-05-10T07:09:54;5.70;;;3.90;;
5491;SDS011;2768;53.540;10.224;2023-05-10T07:15:47;5.23;;;4.73;;
5491;SDS011;2768;53.540;10.224;2023-05-10T07:21:41;4.60;;;4.20;;
5491;SDS011;2768;53.540;10.224;2023-05-10T07:27:35;4.40;;;4.00;;
5491;SDS011;2768;53.540;10.224;2023-05-10T07:33:29;4.27;;;3.73;;
5491;SDS011;2768;53.540;10.224;2023-05-10T07:39:23;4.30;;;3.90;;
5491;SDS011;2768;53.540;10.224;2023-05-10T07:45:19;4.50;;;4.10;;
5491;SDS011;2768;53.540;10.224;2023-05-10T07:51:12;4.33;;;3.93;;
5491;SDS011;2768;53.540;10.224;2023-05-10T07:57:06;4.10;;;3.50;;
5491;SDS011;2768;53.540;10.224;2023-05-10T08:03:01;3.90;;;3.60;;
5491;SDS011;2768;53.540;10.224;2023-05-10T08:08:55;4.80;;;4.00;;
5491;SDS011;2768;53.540;10.224;2023-05-10T08:14:48;5.23;;;4.33;;
5491;SDS011;2768;53.540;10.224;2023-05-10T08:20:43;4.60;;;4.20;;
5491;SDS011;2768;53.540;10.224;2023-05-10T08:26:36;5.17;;;4.20;;
5491;SDS011;2768;53.540;10.224;2023-05-10T08:32:29;5.10;;;4.60;;
5491;SDS011;2768;53.540;10.224;2023-05-10T08:38:24;5.10;;;4.13;;
5491;SDS011;2768;53.540;10.224;2023-05-10T08:44:17;5.43;;;4.10;;
5491;SDS011;2768;53.540;10.224;2023-05-10T08:50:11;5.40;;;4.17;;
5491;SDS011;2768;53.540;10.224;2023-05-10T08:56:07;4.50;;;4.20;;
5491;SDS011;2768;53.540;10.224;2023-05-10T09:02:01;3.97;;;3.67;;
5491;SDS011;2768;53.540;10.224;2023-05-10T09:07:57;5.13;;;3.77;;
5491;SDS011;2768;53.540;10.224;2023-05-10T09:13:53;4.10;;;3.70;;
5491;SDS011;2768;53.540;10.224;2023-05-10T09:19:47;7.60;;;4.20;;
5491;SDS011;2768;53.540;10.224;2023-05-10T09:25:41;5.20;;;4.33;;
5491;SDS011;2768;53.540;10.224;2023-05-10T09:31:46;5.43;;;4.60;;
5491;SDS011;2768;53.540;10.224;2023-05-10T09:37:43;4.47;;;4.17;;
5491;SDS011;2768;53.540;10.224;2023-05-10T09:43:39;5.17;;;4.70;;
5491;SDS011;2768;53.540;10.224;2023-05-10T09:49:34;5.53;;;5.03;;
5491;SDS011;2768;53.540;10.224;2023-05-10T09:55:38;5.17;;;4.67;;
5491;SDS011;2768;53.540;10.224;2023-05-10T10:01:33;5.83;;;4.70;;
5491;SDS011;2768;53.540;10.224;2023-05-10T10:07:28;6.40;;;5.53;;
5491;SDS011;2768;53.540;10.224;2023-05-10T10:13:21;5.50;;;4.87;;
5491;SDS011;2768;53.540;10.224;2023-05-10T10:19:15;5.07;;;4.50;;
5491;SDS011;2768;53.540;10.224;2023-05-10T10:25:10;5.67;;;5.17;;
5491;SDS011;2768;53.540;10.224;2023-05-10T10:31:11;6.50;;;5.60;;
5491;SDS011;2768;53.540;10.224;2023-05-10T10:37:10;6.40;;;5.90;;
5491;SDS011;2768;53.540;10.224;2023-05-10T10:49:17;7.60;;;6.80;;
5491;SDS011;2768;53.540;10.224;2023-05-10T10:55:11;7.53;;;6.83;;
5491;SDS011;2768;53.540;10.224;2023-05-10T11:01:10;9.37;;;8.40;;
5491;SDS011;2768;53.540;10.224;2023-05-10T11:07:15;9.23;;;8.20;;
5491;SDS011;2768;53.540;10.224;2023-05-10T11:13:10;8.40;;;7.57;;
5491;SDS011;2768;53.540;10.224;2023-05-10T11:19:06;8.73;;;7.93;;
5491;SDS011;2768;53.540;10.224;2023-05-10T11:25:02;8.17;;;7.47;;
5491;SDS011;2768;53.540;10.224;2023-05-10T11:30:56;9.30;;;8.50;;
5491;SDS011;2768;53.540;10.224;2023-05-10T11:36:52;8.47;;;7.77;;
5491;SDS011;2768;53.540;10.224;2023-05-10T11:42:45;8.20;;;7.50;;
5491;SDS011;2768;53.540;10.224;2023-05-10T11:48:39;8.40;;;7.60;;
5491;SDS011;2768;53.540;10.224;2023-05-10T11:54:34;11.10;;;7.93;;
5491;SDS011;2768;53.540;10.224;2023-05-10T12:00:28;8.53;;;7.73;;
5491;SDS011;2768;53.540;10.224;2023-05-10T12:06:22;8.70;;;7.90;;
5491;SDS011;2768;53.540;10.224;2023-05-10T12:12:20;8.70;;;7.80;;
5491;SDS011;2768;53.540;10.224;2023-05-10T12:18:14;7.50;;;6.90;;
5491;SDS011;2768;53.540;10.224;2023-05-10T12:24:07;10.10;;;9.00;;
5491;SDS011;2768;53.540;10.224;2023-05-10T12:30:03;11.37;;;8.77;;
5491;SDS011;2768;53.540;10.224;2023-05-10T12:35:58;9.47;;;8.63;;
5491;SDS011;2768;53.540;10.224;2023-05-10T12:41:52;9.60;;;8.70;;
5491;SDS011;2768;53.540;10.224;2023-05-10T12:47:47;8.23;;;7.43;;
5491;SDS011;2768;53.540;10.224;2023-05-10T12:53:40;8.70;;;7.97;;
5491;SDS011;2768;53.540;10.224;2023-05-10T12:59:37;9.27;;;8.37;;
5491;SDS011;2768;53.540;10.224;2023-05-10T13:05:32;7.83;;;7.13;;
5491;SDS011;2768;53.540;10.224;2023-05-10T13:11:25;7.77;;;7.07;;
5491;SDS011;2768;53.540;10.224;2023-05-10T13:17:18;7.43;;;6.70;;
5491;SDS011;2768;53.540;10.224;2023-05-10T13:23:13;6.60;;;6.00;;
5491;SDS011;2768;53.540;10.224;2023-05-10T13:29:06;6.40;;;5.70;;
5491;SDS011;2768;53.540;10.224;2023-05-10T13:35:00;5.97;;;5.47;;
5491;SDS011;2768;53.540;10.224;2023-05-10T13:40:55;6.70;;;6.10;;
5491;SDS011;2768;53.540;10.224;2023-05-10T13:46:48;6.67;;;6.10;;
5491;SDS011;2768;53.540;10.224;2023-05-10T13:52:42;5.07;;;4.73;;
5491;SDS011;2768;53.540;10.224;2023-05-10T13:58:36;4.77;;;4.37;;
5491;SDS011;2768;53.540;10.224;2023-05-10T14:04:30;5.77;;;5.33;;
5491;SDS011;2768;53.540;10.224;2023-05-10T14:10:23;5.03;;;4.63;;
5491;SDS011;2768;53.540;10.224;2023-05-10T14:16:18;5.90;;;5.40;;
5491;SDS011;2768;53.540;10.224;2023-05-10T14:22:11;4.93;;;4.53;;
5491;SDS011;2768;53.540;10.224;2023-05-10T14:28:04;5.33;;;4.93;;
5491;SDS011;2768;53.540;10.224;2023-05-10T14:33:59;6.10;;;5.60;;
5491;SDS011;2768;53.540;10.224;2023-05-10T14:39:52;4.67;;;4.37;;
5491;SDS011;2768;53.540;10.224;2023-05-10T14:45:46;6.27;;;5.37;;
5491;SDS011;2768;53.540;10.224;2023-05-10T14:51:41;5.23;;;4.83;;
5491;SDS011;2768;53.540;10.224;2023-05-10T14:57:34;6.40;;;5.90;;
5491;SDS011;2768;53.540;10.224;2023-05-10T15:03:27;6.40;;;5.90;;
5491;SDS011;2768;53.540;10.224;2023-05-10T15:09:22;6.40;;;5.80;;
5491;SDS011;2768;53.540;10.224;2023-05-10T15:15:16;6.03;;;5.60;;
5491;SDS011;2768;53.540;10.224;2023-05-10T15:21:09;6.47;;;5.87;;
5491;SDS011;2768;53.540;10.224;2023-05-10T15:27:04;6.73;;;6.13;;
5491;SDS011;2768;53.540;10.224;2023-05-10T15:32:57;6.00;;;5.50;;
5491;SDS011;2768;53.540;10.224;2023-05-10T15:38:50;5.90;;;5.40;;
5491;SDS011;2768;53.540;10.224;2023-05-10T15:44:45;6.53;;;5.93;;
5491;SDS011;2768;53.540;10.224;2023-05-10T15:50:41;5.20;;;4.80;;
5491;SDS011;2768;53.540;10.224;2023-05-10T15:56:34;5.60;;;5.20;;
5491;SDS011;2768;53.540;10.224;2023-05-10T16:02:29;5.47;;;5.07;;
5491;SDS011;2768;53.540;10.224;2023-05-10T16:08:23;4.27;;;3.97;;
5491;SDS011;2768;53.540;10.224;2023-05-10T16:14:16;5.60;;;5.10;;
5491;SDS011;2768;53.540;10.224;2023-05-10T16:20:13;5.27;;;4.77;;
5491;SDS011;2768;53.540;10.224;2023-05-10T16:26:06;4.60;;;4.20;;
5491;SDS011;2768;53.540;10.224;2023-05-10T16:31:59;6.07;;;5.50;;
5491;SDS011;2768;53.540;10.224;2023-05-10T16:37:54;5.53;;;5.13;;
5491;SDS011;2768;53.540;10.224;2023-05-10T16:43:48;5.20;;;4.67;;
5491;SDS011;2768;53.540;10.224;2023-05-10T16:49:41;6.83;;;6.23;;
5491;SDS011;2768;53.540;10.224;2023-05-10T16:55:36;5.20;;;4.83;;
5491;SDS011;2768;53.540;10.224;2023-05-10T17:01:29;4.70;;;3.20;;
5491;SDS011;2768;53.540;10.224;2023-05-10T17:07:22;3.70;;;3.47;;
5491;SDS011;2768;53.540;10.224;2023-05-10T17:13:18;5.00;;;4.63;;
5491;SDS011;2768;53.540;10.224;2023-05-10T17:19:11;5.20;;;4.80;;
5491;SDS011;2768;53.540;10.224;2023-05-10T17:25:05;7.20;;;6.60;;
5491;SDS011;2768;53.540;10.224;2023-05-10T17:31:00;28.90;;;26.30;;
5491;SDS011;2768;53.540;10.224;2023-05-10T17:36:54;25.57;;;23.37;;
5491;SDS011;2768;53.540;10.224;2023-05-10T17:42:47;17.17;;;15.47;;
5491;SDS011;2768;53.540;10.224;2023-05-10T17:48:42;11.00;;;9.40;;
5491;SDS011;2768;53.540;10.224;2023-05-10T17:54:35;8.33;;;7.63;;
5491;SDS011;2768;53.540;10.224;2023-05-10T18:00:28;4.87;;;4.50;;
5491;SDS011;2768;53.540;10.224;2023-05-10T18:06:23;4.27;;;3.97;;
5491;SDS011;2768;53.540;10.224;2023-05-10T18:12:17;4.03;;;3.83;;
5491;SDS011;2768;53.540;10.224;2023-05-10T18:18:10;4.40;;;4.00;;
5491;SDS011;2768;53.540;10.224;2023-05-10T18:24:04;4.87;;;4.47;;
5491;SDS011;2768;53.540;10.224;2023-05-10T18:29:58;4.63;;;4.33;;
5491;SDS011;2768;53.540;10.224;2023-05-10T18:35:51;5.63;;;5.23;;
5491;SDS011;2768;53.540;10.224;2023-05-10T18:41:45;5.13;;;4.73;;
5491;SDS011;2768;53.540;10.224;2023-05-10T18:47:39;5.07;;;4.67;;
5491;SDS011;2768;53.540;10.224;2023-05-10T18:53:33;4.17;;;3.87;;
5491;SDS011;2768;53.540;10.224;2023-05-10T18:59:28;5.77;;;5.27;;
5491;SDS011;2768;53.540;10.224;2023-05-10T19:05:21;6.30;;;5.70;;
5491;SDS011;2768;53.540;10.224;2023-05-10T19:11:20;6.27;;;5.77;;
5491;SDS011;2768;53.540;10.224;2023-05-10T19:17:14;7.17;;;6.57;;
5491;SDS011;2768;53.540;10.224;2023-05-10T19:23:09;6.60;;;6.00;;
5491;SDS011;2768;53.540;10.224;2023-05-10T19:29:02;6.73;;;6.23;;
5491;SDS011;2768;53.540;10.224;2023-05-10T19:34:57;6.17;;;5.57;;
5491;SDS011;2768;53.540;10.224;2023-05-10T19:40:50;6.10;;;5.60;;
5491;SDS011;2768;53.540;10.224;2023-05-10T19:46:48;6.50;;;5.90;;
5491;SDS011;2768;53.540;10.224;2023-05-10T19:52:45;5.60;;;5.10;;
5491;SDS011;2768;53.540;10.224;2023-05-10T19:58:38;5.60;;;5.10;;
5491;SDS011;2768;53.540;10.224;2023-05-10T20:04:33;6.50;;;5.90;;
5491;SDS011;2768;53.540;10.224;2023-05-10T20:10:29;7.17;;;5.70;;
5491;SDS011;2768;53.540;10.224;2023-05-10T20:16:22;6.53;;;5.93;;
5491;SDS011;2768;53.540;10.224;2023-05-10T20:22:17;6.60;;;6.00;;
5491;SDS011;2768;53.540;10.224;2023-05-10T20:28:11;7.40;;;5.83;;
5491;SDS011;2768;53.540;10.224;2023-05-10T20:34:05;4.97;;;4.47;;
5491;SDS011;2768;53.540;10.224;2023-05-10T20:39:58;4.90;;;4.60;;
5491;SDS011;2768;53.540;10.224;2023-05-10T20:45:52;6.50;;;4.57;;
5491;SDS011;2768;53.540;10.224;2023-05-10T20:51:46;5.43;;;5.03;;
5491;SDS011;2768;53.540;10.224;2023-05-10T20:57:39;5.03;;;4.67;;
5491;SDS011;2768;53.540;10.224;2023-05-10T21:03:34;6.00;;;5.60;;
5491;SDS011;2768;53.540;10.224;2023-05-10T21:09:27;8.30;;;7.70;;
5491;SDS011;2768;53.540;10.224;2023-05-10T21:15:20;8.43;;;7.73;;
5491;SDS011;2768;53.540;10.224;2023-05-10T21:21:16;9.10;;;8.40;;
5491;SDS011;2768;53.540;10.224;2023-05-10T21:27:09;8.80;;;8.10;;
5491;SDS011;2768;53.540;10.224;2023-05-10T21:33:02;8.87;;;8.17;;
5491;SDS011;2768;53.540;10.224;2023-05-10T21:38:57;9.37;;;8.67;;
5491;SDS011;2768;53.540;10.224;2023-05-10T21:44:50;11.17;;;10.17;;
5491;SDS011;2768;53.540;10.224;2023-05-10T21:50:44;10.53;;;9.63;;
5491;SDS011;2768;53.540;10.224;2023-05-10T21:56:39;11.20;;;10.20;;
5491;SDS011;2768;53.540;10.224;2023-05-10T22:02:32;12.20;;;11.20;;
5491;SDS011;2768;53.540;10.224;2023-05-10T22:08:26;11.40;;;10.40;;
5491;SDS011;2768;53.540;10.224;2023-05-10T22:14:20;12.83;;;11.63;;
5491;SDS011;2768;53.540;10.224;2023-05-10T22:20:14;13.30;;;12.10;;
5491;SDS011;2768;53.540;10.224;2023-05-10T22:26:08;13.90;;;12.60;;
5491;SDS011;2768;53.540;10.224;2023-05-10T22:32:02;14.33;;;12.83;;
5491;SDS011;2768;53.540;10.224;2023-05-10T22:37:56;13.60;;;12.20;;
5491;SDS011;2768;53.540;10.224;2023-05-10T22:43:50;12.97;;;11.67;;
5491;SDS011;2768;53.540;10.224;2023-05-10T22:49:44;12.90;;;11.10;;
5491;SDS011;2768;53.540;10.224;2023-05-10T22:55:37;12.93;;;11.63;;
5491;SDS011;2768;53.540;10.224;2023-05-10T23:01:31;15.10;;;13.50;;
5491;SDS011;2768;53.540;10.224;2023-05-10T23:07:25;15.80;;;13.50;;
5491;SDS011;2768;53.540;10.224;2023-05-10T23:13:18;13.70;;;12.27;;
5491;SDS011;2768;53.540;10.224;2023-05-10T23:19:12;14.30;;;12.80;;
5491;SDS011;2768;53.540;10.224;2023-05-10T23:25:07;15.07;;;13.17;;
5491;SDS011;2768;53.540;10.224;2023-05-10T23:31:01;15.13;;;13.07;;
5491;SDS011;2768;53.540;10.224;2023-05-10T23:36:54;13.90;;;12.40;;
5491;SDS011;2768;53.540;10.224;2023-05-10T23:42:49;16.93;;;13.97;;
5491;SDS011;2768;53.540;10.224;2023-05-10T23:48:42;15.57;;;13.23;;
5491;SDS011;2768;53.540;10.224;2023-05-10T23:54:35;14.60;;;12.20;;
